sensor_id;sensor_type;location;lat;lon;timestamp;P1;durP1;ratioP1;P2;durP2;ratioP2
25946;SDS011;13745;51.470;9.894;2023-02-12T00:00:57;57.47;;;29.70;;
25946;SDS011;13745;51.470;9.894;2023-02-12T00:03:42;52.03;;;27.70;;
25946;SDS011;13745;51.470;9.894;2023-02-12T00:06:27;54.80;;;28.10;;
25946;SDS011;13745;51.470;9.894;2023-02-12T00:09:12;54.67;;;29.02;;
25946;SDS011;13745;51.470;9.894;2023-02-12T00:11:57;51.40;;;27.35;;
25946;SDS011;13745;51.470;9.894;2023-02-12T00:14:43;48.50;;;26.90;;
25946;SDS011;13745;51.470;9.894;2023-02-12T00:17:29;52.20;;;27.80;;
25946;SDS011;13745;51.470;9.894;2023-02-12T00:20:15;50.25;;;26.77;;
25946;SDS011;13745;51.470;9.894;2023-02-12T00:23:00;46.25;;;25.60;;
25946;SDS011;13745;51.470;9.894;2023-02-12T00:25:45;46.17;;;25.58;;
25946;SDS011;13745;51.470;9.894;2023-02-12T00:28:30;48.78;;;26.65;;
25946;SDS011;13745;51.470;9.894;2023-02-12T00:31:16;47.58;;;25.10;;
25946;SDS011;13745;51.470;9.894;2023-02-12T00:34:04;45.92;;;25.25;;
25946;SDS011;13745;51.470;9.894;2023-02-12T00:36:49;47.25;;;25.35;;
25946;SDS011;13745;51.470;9.894;2023-02-12T00:39:34;44.22;;;24.73;;
25946;SDS011;13745;51.470;9.894;2023-02-12T00:42:21;43.45;;;23.92;;
25946;SDS011;13745;51.470;9.894;2023-02-12T00:45:06;43.85;;;24.25;;
25946;SDS011;13745;51.470;9.894;2023-02-12T00:47:52;46.67;;;25.33;;
25946;SDS011;13745;51.470;9.894;2023-02-12T00:50:38;47.95;;;24.65;;
25946;SDS011;13745;51.470;9.894;2023-02-12T00:53:24;43.05;;;24.30;;
25946;SDS011;13745;51.470;9.894;2023-02-12T00:56:10;42.50;;;24.02;;
25946;SDS011;13745;51.470;9.894;2023-02-12T00:58:55;46.83;;;25.33;;
25946;SDS011;13745;51.470;9.894;2023-02-12T01:01:40;46.05;;;23.52;;
25946;SDS011;13745;51.470;9.894;2023-02-12T01:04:25;45.30;;;24.13;;
25946;SDS011;13745;51.470;9.894;2023-02-12T01:07:13;44.40;;;23.38;;
25946;SDS011;13745;51.470;9.894;2023-02-12T01:09:58;42.83;;;23.95;;
25946;SDS011;13745;51.470;9.894;2023-02-12T01:12:46;43.40;;;23.92;;
25946;SDS011;13745;51.470;9.894;2023-02-12T01:15:32;38.17;;;22.75;;
25946;SDS011;13745;51.470;9.894;2023-02-12T01:18:17;42.47;;;22.77;;
25946;SDS011;13745;51.470;9.894;2023-02-12T01:21:07;41.50;;;23.05;;
25946;SDS011;13745;51.470;9.894;2023-02-12T01:23:55;41.00;;;23.83;;
25946;SDS011;13745;51.470;9.894;2023-02-12T01:26:41;43.22;;;23.80;;
25946;SDS011;13745;51.470;9.894;2023-02-12T01:29:26;37.63;;;22.13;;
25946;SDS011;13745;51.470;9.894;2023-02-12T01:32:11;42.05;;;23.05;;
25946;SDS011;13745;51.470;9.894;2023-02-12T01:34:56;43.60;;;23.25;;
25946;SDS011;13745;51.470;9.894;2023-02-12T01:37:41;39.85;;;21.73;;
25946;SDS011;13745;51.470;9.894;2023-02-12T01:40:27;42.45;;;23.55;;
25946;SDS011;13745;51.470;9.894;2023-02-12T01:43:13;38.33;;;21.80;;
25946;SDS011;13745;51.470;9.894;2023-02-12T01:45:58;39.90;;;23.33;;
25946;SDS011;13745;51.470;9.894;2023-02-12T01:48:45;35.42;;;20.38;;
25946;SDS011;13745;51.470;9.894;2023-02-12T01:51:31;40.30;;;22.45;;
25946;SDS011;13745;51.470;9.894;2023-02-12T01:54:19;40.20;;;21.30;;
25946;SDS011;13745;51.470;9.894;2023-02-12T01:57:10;41.67;;;22.55;;
25946;SDS011;13745;51.470;9.894;2023-02-12T01:59:56;36.63;;;20.63;;
25946;SDS011;13745;51.470;9.894;2023-02-12T02:02:45;39.05;;;22.27;;
25946;SDS011;13745;51.470;9.894;2023-02-12T02:05:36;37.15;;;21.25;;
25946;SDS011;13745;51.470;9.894;2023-02-12T02:08:26;39.67;;;21.77;;
25946;SDS011;13745;51.470;9.894;2023-02-12T02:11:12;35.80;;;20.83;;
25946;SDS011;13745;51.470;9.894;2023-02-12T02:14:18;35.75;;;21.02;;
25946;SDS011;13745;51.470;9.894;2023-02-12T02:17:23;40.55;;;21.05;;
25946;SDS011;13745;51.470;9.894;2023-02-12T02:23:52;37.85;;;20.17;;
25946;SDS011;13745;51.470;9.894;2023-02-12T02:33:17;36.95;;;20.00;;
25946;SDS011;13745;51.470;9.894;2023-02-12T02:36:13;37.05;;;20.65;;
25946;SDS011;13745;51.470;9.894;2023-02-12T02:39:02;34.67;;;19.00;;
25946;SDS011;13745;51.470;9.894;2023-02-12T02:41:53;35.35;;;18.23;;
25946;SDS011;13745;51.470;9.894;2023-02-12T02:44:43;34.00;;;18.17;;
25946;SDS011;13745;51.470;9.894;2023-02-12T02:47:36;34.13;;;19.08;;
25946;SDS011;13745;51.470;9.894;2023-02-12T02:50:25;30.45;;;18.02;;
25946;SDS011;13745;51.470;9.894;2023-02-12T02:53:12;35.75;;;18.98;;
25946;SDS011;13745;51.470;9.894;2023-02-12T02:56:00;35.97;;;19.27;;
25946;SDS011;13745;51.470;9.894;2023-02-12T02:58:48;32.92;;;18.35;;
25946;SDS011;13745;51.470;9.894;2023-02-12T03:01:37;36.95;;;19.35;;
25946;SDS011;13745;51.470;9.894;2023-02-12T03:04:28;33.80;;;18.77;;
25946;SDS011;13745;51.470;9.894;2023-02-12T03:07:19;30.95;;;18.17;;
25946;SDS011;13745;51.470;9.894;2023-02-12T03:10:10;34.53;;;18.80;;
25946;SDS011;13745;51.470;9.894;2023-02-12T03:12:58;32.40;;;16.38;;
25946;SDS011;13745;51.470;9.894;2023-02-12T03:15:47;31.42;;;17.00;;
25946;SDS011;13745;51.470;9.894;2023-02-12T03:18:40;29.83;;;17.27;;
25946;SDS011;13745;51.470;9.894;2023-02-12T03:21:32;29.83;;;16.23;;
25946;SDS011;13745;51.470;9.894;2023-02-12T03:24:22;31.15;;;17.15;;
25946;SDS011;13745;51.470;9.894;2023-02-12T03:27:12;25.08;;;14.95;;
25946;SDS011;13745;51.470;9.894;2023-02-12T03:30:03;29.40;;;16.67;;
25946;SDS011;13745;51.470;9.894;2023-02-12T03:33:06;32.88;;;16.05;;
25946;SDS011;13745;51.470;9.894;2023-02-12T03:36:00;28.15;;;15.68;;
25946;SDS011;13745;51.470;9.894;2023-02-12T03:38:53;28.40;;;16.45;;
25946;SDS011;13745;51.470;9.894;2023-02-12T03:41:42;27.42;;;15.75;;
25946;SDS011;13745;51.470;9.894;2023-02-12T03:44:32;27.48;;;15.55;;
25946;SDS011;13745;51.470;9.894;2023-02-12T03:47:35;25.55;;;15.70;;
25946;SDS011;13745;51.470;9.894;2023-02-12T03:50:27;29.23;;;16.17;;
25946;SDS011;13745;51.470;9.894;2023-02-12T03:53:21;29.55;;;15.98;;
25946;SDS011;13745;51.470;9.894;2023-02-12T03:56:08;23.55;;;14.73;;
25946;SDS011;13745;51.470;9.894;2023-02-12T03:58:56;25.38;;;15.00;;
25946;SDS011;13745;51.470;9.894;2023-02-12T04:01:42;23.13;;;14.18;;
25946;SDS011;13745;51.470;9.894;2023-02-12T04:04:26;26.73;;;15.25;;
25946;SDS011;13745;51.470;9.894;2023-02-12T04:07:13;22.48;;;13.75;;
25946;SDS011;13745;51.470;9.894;2023-02-12T04:09:59;25.05;;;15.07;;
25946;SDS011;13745;51.470;9.894;2023-02-12T04:12:49;24.13;;;13.95;;
25946;SDS011;13745;51.470;9.894;2023-02-12T04:18:45;24.45;;;14.60;;
25946;SDS011;13745;51.470;9.894;2023-02-12T04:21:37;22.83;;;13.57;;
25946;SDS011;13745;51.470;9.894;2023-02-12T04:24:32;22.75;;;14.20;;
25946;SDS011;13745;51.470;9.894;2023-02-12T04:27:29;24.98;;;14.98;;
25946;SDS011;13745;51.470;9.894;2023-02-12T04:30:24;25.33;;;13.60;;
25946;SDS011;13745;51.470;9.894;2023-02-12T04:33:14;22.13;;;13.52;;
25946;SDS011;13745;51.470;9.894;2023-02-12T04:36:05;23.08;;;13.25;;
25946;SDS011;13745;51.470;9.894;2023-02-12T04:38:57;25.30;;;14.95;;
25946;SDS011;13745;51.470;9.894;2023-02-12T04:41:47;23.30;;;14.23;;
25946;SDS011;13745;51.470;9.894;2023-02-12T04:44:33;25.00;;;14.40;;
25946;SDS011;13745;51.470;9.894;2023-02-12T04:47:22;25.40;;;15.38;;
25946;SDS011;13745;51.470;9.894;2023-02-12T04:50:07;30.77;;;16.45;;
25946;SDS011;13745;51.470;9.894;2023-02-12T04:52:53;29.02;;;15.45;;
25946;SDS011;13745;51.470;9.894;2023-02-12T04:55:38;25.60;;;15.32;;
25946;SDS011;13745;51.470;9.894;2023-02-12T04:58:23;29.17;;;15.98;;
25946;SDS011;13745;51.470;9.894;2023-02-12T05:01:08;30.60;;;16.90;;
25946;SDS011;13745;51.470;9.894;2023-02-12T05:03:55;27.98;;;16.05;;
25946;SDS011;13745;51.470;9.894;2023-02-12T05:06:40;28.42;;;16.73;;
25946;SDS011;13745;51.470;9.894;2023-02-12T05:09:26;27.70;;;15.65;;
25946;SDS011;13745;51.470;9.894;2023-02-12T05:12:11;29.38;;;15.65;;
25946;SDS011;13745;51.470;9.894;2023-02-12T05:14:56;33.47;;;17.02;;
25946;SDS011;13745;51.470;9.894;2023-02-12T05:17:41;31.30;;;16.25;;
25946;SDS011;13745;51.470;9.894;2023-02-12T05:20:29;30.42;;;16.73;;
25946;SDS011;13745;51.470;9.894;2023-02-12T05:23:15;29.55;;;15.80;;
25946;SDS011;13745;51.470;9.894;2023-02-12T05:26:00;28.80;;;15.82;;
25946;SDS011;13745;51.470;9.894;2023-02-12T05:28:47;30.23;;;16.80;;
25946;SDS011;13745;51.470;9.894;2023-02-12T05:31:32;31.02;;;16.70;;
25946;SDS011;13745;51.470;9.894;2023-02-12T05:34:17;30.45;;;17.40;;
25946;SDS011;13745;51.470;9.894;2023-02-12T05:37:04;30.60;;;17.85;;
25946;SDS011;13745;51.470;9.894;2023-02-12T05:39:49;30.65;;;17.63;;
25946;SDS011;13745;51.470;9.894;2023-02-12T05:42:34;29.90;;;17.40;;
25946;SDS011;13745;51.470;9.894;2023-02-12T05:45:20;25.83;;;15.50;;
25946;SDS011;13745;51.470;9.894;2023-02-12T05:48:10;32.47;;;17.45;;
25946;SDS011;13745;51.470;9.894;2023-02-12T05:51:00;31.20;;;15.98;;
25946;SDS011;13745;51.470;9.894;2023-02-12T05:53:48;27.40;;;16.33;;
25946;SDS011;13745;51.470;9.894;2023-02-12T05:56:35;29.45;;;15.63;;
25946;SDS011;13745;51.470;9.894;2023-02-12T05:59:21;30.73;;;16.80;;
25946;SDS011;13745;51.470;9.894;2023-02-12T06:02:07;30.02;;;17.00;;
25946;SDS011;13745;51.470;9.894;2023-02-12T06:04:52;25.80;;;14.13;;
25946;SDS011;13745;51.470;9.894;2023-02-12T06:07:37;26.27;;;15.27;;
25946;SDS011;13745;51.470;9.894;2023-02-12T06:10:23;26.83;;;15.23;;
25946;SDS011;13745;51.470;9.894;2023-02-12T06:13:09;29.65;;;16.15;;
25946;SDS011;13745;51.470;9.894;2023-02-12T06:15:54;26.58;;;14.75;;
25946;SDS011;13745;51.470;9.894;2023-02-12T06:18:39;31.00;;;16.70;;
25946;SDS011;13745;51.470;9.894;2023-02-12T06:21:24;33.92;;;16.80;;
25946;SDS011;13745;51.470;9.894;2023-02-12T06:24:10;27.23;;;15.75;;
25946;SDS011;13745;51.470;9.894;2023-02-12T06:26:58;32.65;;;16.58;;
25946;SDS011;13745;51.470;9.894;2023-02-12T06:29:43;29.45;;;16.27;;
25946;SDS011;13745;51.470;9.894;2023-02-12T06:32:28;27.52;;;15.25;;
25946;SDS011;13745;51.470;9.894;2023-02-12T06:35:13;27.45;;;15.77;;
25946;SDS011;13745;51.470;9.894;2023-02-12T06:37:59;29.40;;;15.77;;
25946;SDS011;13745;51.470;9.894;2023-02-12T06:40:44;29.38;;;16.25;;
25946;SDS011;13745;51.470;9.894;2023-02-12T06:43:30;30.30;;;17.20;;
25946;SDS011;13745;51.470;9.894;2023-02-12T06:46:16;28.77;;;16.83;;
25946;SDS011;13745;51.470;9.894;2023-02-12T06:49:01;30.02;;;15.75;;
25946;SDS011;13745;51.470;9.894;2023-02-12T06:51:46;28.02;;;16.00;;
25946;SDS011;13745;51.470;9.894;2023-02-12T06:54:31;28.58;;;16.55;;
25946;SDS011;13745;51.470;9.894;2023-02-12T06:57:16;30.15;;;16.48;;
25946;SDS011;13745;51.470;9.894;2023-02-12T07:00:03;33.05;;;16.40;;
25946;SDS011;13745;51.470;9.894;2023-02-12T07:02:53;30.15;;;16.83;;
25946;SDS011;13745;51.470;9.894;2023-02-12T07:05:38;26.67;;;15.88;;
25946;SDS011;13745;51.470;9.894;2023-02-12T07:08:24;27.05;;;15.52;;
25946;SDS011;13745;51.470;9.894;2023-02-12T07:11:09;26.95;;;14.25;;
25946;SDS011;13745;51.470;9.894;2023-02-12T07:13:54;28.70;;;15.05;;
25946;SDS011;13745;51.470;9.894;2023-02-12T07:16:41;25.63;;;14.80;;
25946;SDS011;13745;51.470;9.894;2023-02-12T07:19:26;33.10;;;16.27;;
25946;SDS011;13745;51.470;9.894;2023-02-12T07:22:11;28.05;;;14.73;;
25946;SDS011;13745;51.470;9.894;2023-02-12T07:24:56;25.50;;;14.35;;
25946;SDS011;13745;51.470;9.894;2023-02-12T07:27:41;30.35;;;15.80;;
25946;SDS011;13745;51.470;9.894;2023-02-12T07:30:26;29.27;;;16.25;;
25946;SDS011;13745;51.470;9.894;2023-02-12T07:33:13;30.77;;;16.50;;
25946;SDS011;13745;51.470;9.894;2023-02-12T07:35:58;28.38;;;15.05;;
25946;SDS011;13745;51.470;9.894;2023-02-12T07:38:44;32.13;;;16.02;;
25946;SDS011;13745;51.470;9.894;2023-02-12T07:41:30;38.88;;;19.60;;
25946;SDS011;13745;51.470;9.894;2023-02-12T07:44:16;31.15;;;17.13;;
25946;SDS011;13745;51.470;9.894;2023-02-12T07:47:01;33.53;;;16.83;;
25946;SDS011;13745;51.470;9.894;2023-02-12T07:49:49;29.52;;;15.52;;
25946;SDS011;13745;51.470;9.894;2023-02-12T07:52:34;31.38;;;16.00;;
25946;SDS011;13745;51.470;9.894;2023-02-12T07:55:19;31.33;;;16.42;;
25946;SDS011;13745;51.470;9.894;2023-02-12T07:58:04;32.00;;;16.48;;
25946;SDS011;13745;51.470;9.894;2023-02-12T08:00:49;36.47;;;17.83;;
25946;SDS011;13745;51.470;9.894;2023-02-12T08:03:35;37.85;;;18.27;;
25946;SDS011;13745;51.470;9.894;2023-02-12T08:06:22;38.78;;;19.33;;
25946;SDS011;13745;51.470;9.894;2023-02-12T08:09:10;36.35;;;17.27;;
25946;SDS011;13745;51.470;9.894;2023-02-12T08:11:56;35.75;;;18.33;;
25946;SDS011;13745;51.470;9.894;2023-02-12T08:14:42;32.75;;;17.13;;
25946;SDS011;13745;51.470;9.894;2023-02-12T08:17:27;34.22;;;17.10;;
25946;SDS011;13745;51.470;9.894;2023-02-12T08:20:12;35.50;;;17.83;;
25946;SDS011;13745;51.470;9.894;2023-02-12T08:22:58;36.40;;;19.13;;
25946;SDS011;13745;51.470;9.894;2023-02-12T08:25:44;35.75;;;18.13;;
25946;SDS011;13745;51.470;9.894;2023-02-12T08:28:29;35.42;;;17.20;;
25946;SDS011;13745;51.470;9.894;2023-02-12T08:31:15;35.53;;;17.30;;
25946;SDS011;13745;51.470;9.894;2023-02-12T08:34:02;37.63;;;19.65;;
25946;SDS011;13745;51.470;9.894;2023-02-12T08:36:49;36.85;;;18.50;;
25946;SDS011;13745;51.470;9.894;2023-02-12T08:39:37;35.13;;;16.98;;
25946;SDS011;13745;51.470;9.894;2023-02-12T08:42:22;34.50;;;17.50;;
25946;SDS011;13745;51.470;9.894;2023-02-12T08:45:08;34.33;;;17.77;;
25946;SDS011;13745;51.470;9.894;2023-02-12T08:47:53;36.38;;;19.70;;
25946;SDS011;13745;51.470;9.894;2023-02-12T08:50:38;34.05;;;16.92;;
25946;SDS011;13745;51.470;9.894;2023-02-12T08:53:23;35.13;;;18.08;;
25946;SDS011;13745;51.470;9.894;2023-02-12T08:56:11;39.88;;;19.27;;
25946;SDS011;13745;51.470;9.894;2023-02-12T08:58:58;53.20;;;21.40;;
25946;SDS011;13745;51.470;9.894;2023-02-12T09:01:44;33.15;;;18.23;;
25946;SDS011;13745;51.470;9.894;2023-02-12T09:04:29;38.40;;;18.48;;
25946;SDS011;13745;51.470;9.894;2023-02-12T09:07:14;38.38;;;19.38;;
25946;SDS011;13745;51.470;9.894;2023-02-12T09:09:59;38.83;;;20.08;;
25946;SDS011;13745;51.470;9.894;2023-02-12T09:12:45;41.53;;;20.48;;
25946;SDS011;13745;51.470;9.894;2023-02-12T09:15:34;38.03;;;18.58;;
25946;SDS011;13745;51.470;9.894;2023-02-12T09:18:20;37.03;;;18.73;;
25946;SDS011;13745;51.470;9.894;2023-02-12T09:21:06;36.50;;;17.83;;
25946;SDS011;13745;51.470;9.894;2023-02-12T09:23:53;39.22;;;19.38;;
25946;SDS011;13745;51.470;9.894;2023-02-12T09:26:39;40.63;;;19.45;;
25946;SDS011;13745;51.470;9.894;2023-02-12T09:29:26;38.28;;;19.23;;
25946;SDS011;13745;51.470;9.894;2023-02-12T09:32:11;34.95;;;19.30;;
25946;SDS011;13745;51.470;9.894;2023-02-12T09:34:56;38.80;;;18.75;;
25946;SDS011;13745;51.470;9.894;2023-02-12T09:37:41;39.03;;;19.13;;
25946;SDS011;13745;51.470;9.894;2023-02-12T09:40:30;37.83;;;18.02;;
25946;SDS011;13745;51.470;9.894;2023-02-12T09:43:24;36.85;;;17.25;;
25946;SDS011;13745;51.470;9.894;2023-02-12T09:46:20;39.35;;;18.20;;
25946;SDS011;13745;51.470;9.894;2023-02-12T09:49:13;33.97;;;17.83;;
25946;SDS011;13745;51.470;9.894;2023-02-12T09:52:02;37.40;;;19.08;;
25946;SDS011;13745;51.470;9.894;2023-02-12T09:54:49;32.40;;;16.67;;
25946;SDS011;13745;51.470;9.894;2023-02-12T09:57:35;35.15;;;17.95;;
25946;SDS011;13745;51.470;9.894;2023-02-12T10:00:23;31.67;;;18.10;;
25946;SDS011;13745;51.470;9.894;2023-02-12T10:03:13;28.80;;;15.55;;
25946;SDS011;13745;51.470;9.894;2023-02-12T10:06:01;29.27;;;15.32;;
25946;SDS011;13745;51.470;9.894;2023-02-12T10:08:54;31.77;;;15.73;;
25946;SDS011;13745;51.470;9.894;2023-02-12T10:11:50;27.42;;;15.98;;
25946;SDS011;13745;51.470;9.894;2023-02-12T10:14:49;30.42;;;15.38;;
25946;SDS011;13745;51.470;9.894;2023-02-12T10:17:41;28.55;;;14.57;;
25946;SDS011;13745;51.470;9.894;2023-02-12T10:20:39;27.80;;;14.60;;
25946;SDS011;13745;51.470;9.894;2023-02-12T10:23:49;20.08;;;11.00;;
25946;SDS011;13745;51.470;9.894;2023-02-12T10:26:43;22.13;;;13.25;;
25946;SDS011;13745;51.470;9.894;2023-02-12T10:29:32;26.15;;;14.80;;
25946;SDS011;13745;51.470;9.894;2023-02-12T10:32:23;24.98;;;12.82;;
25946;SDS011;13745;51.470;9.894;2023-02-12T10:35:14;25.88;;;13.70;;
25946;SDS011;13745;51.470;9.894;2023-02-12T10:38:03;23.17;;;13.00;;
25946;SDS011;13745;51.470;9.894;2023-02-12T10:40:57;27.63;;;14.52;;
25946;SDS011;13745;51.470;9.894;2023-02-12T10:43:44;25.58;;;13.35;;
25946;SDS011;13745;51.470;9.894;2023-02-12T10:46:30;27.00;;;14.05;;
25946;SDS011;13745;51.470;9.894;2023-02-12T10:49:15;21.90;;;12.35;;
25946;SDS011;13745;51.470;9.894;2023-02-12T10:52:08;24.52;;;13.40;;
25946;SDS011;13745;51.470;9.894;2023-02-12T10:55:00;22.42;;;12.52;;
25946;SDS011;13745;51.470;9.894;2023-02-12T10:57:45;25.92;;;13.70;;
25946;SDS011;13745;51.470;9.894;2023-02-12T11:00:31;24.67;;;13.25;;
25946;SDS011;13745;51.470;9.894;2023-02-12T11:03:19;23.02;;;12.45;;
25946;SDS011;13745;51.470;9.894;2023-02-12T11:06:12;20.60;;;12.05;;
25946;SDS011;13745;51.470;9.894;2023-02-12T11:11:45;26.83;;;13.50;;
25946;SDS011;13745;51.470;9.894;2023-02-12T11:14:30;23.20;;;13.65;;
25946;SDS011;13745;51.470;9.894;2023-02-12T11:17:18;22.05;;;12.50;;
25946;SDS011;13745;51.470;9.894;2023-02-12T11:20:19;24.92;;;12.90;;
25946;SDS011;13745;51.470;9.894;2023-02-12T11:23:24;23.52;;;12.70;;
25946;SDS011;13745;51.470;9.894;2023-02-12T11:26:21;24.00;;;13.60;;
25946;SDS011;13745;51.470;9.894;2023-02-12T11:29:17;27.02;;;13.73;;
25946;SDS011;13745;51.470;9.894;2023-02-12T11:32:04;22.00;;;12.60;;
25946;SDS011;13745;51.470;9.894;2023-02-12T11:34:58;26.20;;;13.68;;
25946;SDS011;13745;51.470;9.894;2023-02-12T11:37:50;22.35;;;12.85;;
25946;SDS011;13745;51.470;9.894;2023-02-12T11:40:37;24.70;;;13.90;;
25946;SDS011;13745;51.470;9.894;2023-02-12T11:43:22;24.45;;;13.48;;
25946;SDS011;13745;51.470;9.894;2023-02-12T11:46:10;21.70;;;12.20;;
25946;SDS011;13745;51.470;9.894;2023-02-12T11:49:04;24.05;;;12.70;;
25946;SDS011;13745;51.470;9.894;2023-02-12T11:51:52;25.48;;;13.52;;
25946;SDS011;13745;51.470;9.894;2023-02-12T11:54:39;25.00;;;13.20;;
25946;SDS011;13745;51.470;9.894;2023-02-12T11:57:36;27.20;;;14.40;;
25946;SDS011;13745;51.470;9.894;2023-02-12T12:00:28;26.58;;;14.00;;
25946;SDS011;13745;51.470;9.894;2023-02-12T12:03:19;24.48;;;13.98;;
25946;SDS011;13745;51.470;9.894;2023-02-12T12:06:15;22.65;;;13.13;;
25946;SDS011;13745;51.470;9.894;2023-02-12T12:09:09;21.77;;;12.00;;
25946;SDS011;13745;51.470;9.894;2023-02-12T12:12:01;25.27;;;13.68;;
25946;SDS011;13745;51.470;9.894;2023-02-12T12:14:57;28.17;;;13.98;;
25946;SDS011;13745;51.470;9.894;2023-02-12T12:18:05;24.40;;;12.40;;
25946;SDS011;13745;51.470;9.894;2023-02-12T12:21:28;24.60;;;13.05;;
25946;SDS011;13745;51.470;9.894;2023-02-12T12:24:21;24.35;;;12.77;;
25946;SDS011;13745;51.470;9.894;2023-02-12T12:27:14;24.25;;;12.82;;
25946;SDS011;13745;51.470;9.894;2023-02-12T12:30:23;24.00;;;12.65;;
25946;SDS011;13745;51.470;9.894;2023-02-12T12:33:21;22.92;;;12.63;;
25946;SDS011;13745;51.470;9.894;2023-02-12T12:36:24;16.55;;;10.15;;
25946;SDS011;13745;51.470;9.894;2023-02-12T12:39:31;22.58;;;11.77;;
25946;SDS011;13745;51.470;9.894;2023-02-12T12:42:42;22.77;;;12.30;;
25946;SDS011;13745;51.470;9.894;2023-02-12T12:49:06;18.60;;;9.50;;
25946;SDS011;13745;51.470;9.894;2023-02-12T12:52:14;15.98;;;9.68;;
25946;SDS011;13745;51.470;9.894;2023-02-12T12:55:14;19.33;;;10.55;;
25946;SDS011;13745;51.470;9.894;2023-02-12T12:58:09;17.08;;;10.43;;
25946;SDS011;13745;51.470;9.894;2023-02-12T13:01:09;20.60;;;11.43;;
25946;SDS011;13745;51.470;9.894;2023-02-12T13:07:32;29.67;;;16.90;;
25946;SDS011;13745;51.470;9.894;2023-02-12T13:10:31;20.35;;;12.25;;
25946;SDS011;13745;51.470;9.894;2023-02-12T13:13:23;15.15;;;8.27;;
25946;SDS011;13745;51.470;9.894;2023-02-12T13:16:15;18.60;;;9.80;;
25946;SDS011;13745;51.470;9.894;2023-02-12T13:19:06;15.70;;;9.05;;
25946;SDS011;13745;51.470;9.894;2023-02-12T13:21:57;13.38;;;7.85;;
25946;SDS011;13745;51.470;9.894;2023-02-12T13:24:53;16.33;;;9.07;;
25946;SDS011;13745;51.470;9.894;2023-02-12T13:27:43;19.05;;;10.02;;
25946;SDS011;13745;51.470;9.894;2023-02-12T13:30:32;19.65;;;11.80;;
25946;SDS011;13745;51.470;9.894;2023-02-12T13:33:22;21.90;;;12.52;;
25946;SDS011;13745;51.470;9.894;2023-02-12T13:36:11;31.83;;;15.43;;
25946;SDS011;13745;51.470;9.894;2023-02-12T13:38:58;45.00;;;21.70;;
25946;SDS011;13745;51.470;9.894;2023-02-12T13:44:42;19.42;;;9.95;;
25946;SDS011;13745;51.470;9.894;2023-02-12T13:47:36;18.73;;;8.23;;
25946;SDS011;13745;51.470;9.894;2023-02-12T13:50:35;16.90;;;9.73;;
25946;SDS011;13745;51.470;9.894;2023-02-12T13:53:25;17.42;;;10.38;;
25946;SDS011;13745;51.470;9.894;2023-02-12T13:56:21;18.48;;;11.13;;
25946;SDS011;13745;51.470;9.894;2023-02-12T14:02:43;21.17;;;11.30;;
25946;SDS011;13745;51.470;9.894;2023-02-12T14:05:30;18.60;;;10.73;;
25946;SDS011;13745;51.470;9.894;2023-02-12T14:08:25;20.05;;;11.38;;
25946;SDS011;13745;51.470;9.894;2023-02-12T14:11:19;17.42;;;10.25;;
25946;SDS011;13745;51.470;9.894;2023-02-12T14:14:08;18.83;;;9.93;;
25946;SDS011;13745;51.470;9.894;2023-02-12T14:16:53;17.80;;;10.50;;
25946;SDS011;13745;51.470;9.894;2023-02-12T14:19:53;17.15;;;10.38;;
25946;SDS011;13745;51.470;9.894;2023-02-12T14:26:04;18.27;;;10.38;;
25946;SDS011;13745;51.470;9.894;2023-02-12T14:28:55;19.67;;;11.13;;
25946;SDS011;13745;51.470;9.894;2023-02-12T14:31:43;14.63;;;8.95;;
25946;SDS011;13745;51.470;9.894;2023-02-12T14:37:36;16.17;;;9.20;;
25946;SDS011;13745;51.470;9.894;2023-02-12T14:40:40;15.80;;;9.52;;
25946;SDS011;13745;51.470;9.894;2023-02-12T14:43:28;15.88;;;8.93;;
25946;SDS011;13745;51.470;9.894;2023-02-12T14:49:32;16.08;;;8.40;;
25946;SDS011;13745;51.470;9.894;2023-02-12T14:52:22;15.68;;;9.13;;
25946;SDS011;13745;51.470;9.894;2023-02-12T14:55:20;16.48;;;10.00;;
25946;SDS011;13745;51.470;9.894;2023-02-12T14:58:14;16.73;;;10.18;;
25946;SDS011;13745;51.470;9.894;2023-02-12T15:03:48;13.73;;;8.57;;
25946;SDS011;13745;51.470;9.894;2023-02-12T15:06:37;23.98;;;12.13;;
25946;SDS011;13745;51.470;9.894;2023-02-12T15:09:28;17.15;;;9.25;;
25946;SDS011;13745;51.470;9.894;2023-02-12T15:12:20;15.25;;;9.32;;
25946;SDS011;13745;51.470;9.894;2023-02-12T15:15:14;11.93;;;7.78;;
25946;SDS011;13745;51.470;9.894;2023-02-12T15:18:06;12.95;;;7.07;;
25946;SDS011;13745;51.470;9.894;2023-02-12T15:20:58;12.95;;;7.25;;
25946;SDS011;13745;51.470;9.894;2023-02-12T15:24:04;13.38;;;6.88;;
25946;SDS011;13745;51.470;9.894;2023-02-12T15:26:52;9.93;;;6.50;;
25946;SDS011;13745;51.470;9.894;2023-02-12T15:29:41;13.52;;;7.25;;
25946;SDS011;13745;51.470;9.894;2023-02-12T15:32:28;14.05;;;8.52;;
25946;SDS011;13745;51.470;9.894;2023-02-12T15:35:19;12.73;;;7.10;;
25946;SDS011;13745;51.470;9.894;2023-02-12T15:38:14;12.98;;;7.85;;
25946;SDS011;13745;51.470;9.894;2023-02-12T15:41:04;13.38;;;8.05;;
25946;SDS011;13745;51.470;9.894;2023-02-12T15:43:50;13.48;;;8.07;;
25946;SDS011;13745;51.470;9.894;2023-02-12T15:46:36;15.38;;;7.97;;
25946;SDS011;13745;51.470;9.894;2023-02-12T15:49:24;16.90;;;9.68;;
25946;SDS011;13745;51.470;9.894;2023-02-12T15:52:14;14.82;;;8.48;;
25946;SDS011;13745;51.470;9.894;2023-02-12T15:55:04;14.10;;;7.57;;
25946;SDS011;13745;51.470;9.894;2023-02-12T15:57:58;13.23;;;7.38;;
25946;SDS011;13745;51.470;9.894;2023-02-12T16:00:45;14.63;;;9.23;;
25946;SDS011;13745;51.470;9.894;2023-02-12T16:03:32;16.48;;;9.60;;
25946;SDS011;13745;51.470;9.894;2023-02-12T16:06:19;15.52;;;9.98;;
25946;SDS011;13745;51.470;9.894;2023-02-12T16:09:07;16.52;;;11.52;;
25946;SDS011;13745;51.470;9.894;2023-02-12T16:12:00;16.92;;;9.15;;
25946;SDS011;13745;51.470;9.894;2023-02-12T16:14:48;13.85;;;8.23;;
25946;SDS011;13745;51.470;9.894;2023-02-12T16:17:35;16.17;;;8.43;;
25946;SDS011;13745;51.470;9.894;2023-02-12T16:20:23;15.63;;;8.95;;
25946;SDS011;13745;51.470;9.894;2023-02-12T16:23:10;13.35;;;9.00;;
25946;SDS011;13745;51.470;9.894;2023-02-12T16:25:57;16.90;;;9.48;;
25946;SDS011;13745;51.470;9.894;2023-02-12T16:28:44;19.25;;;11.95;;
25946;SDS011;13745;51.470;9.894;2023-02-12T16:31:31;22.23;;;10.50;;
25946;SDS011;13745;51.470;9.894;2023-02-12T16:34:26;13.20;;;7.95;;
25946;SDS011;13745;51.470;9.894;2023-02-12T16:37:39;13.23;;;7.70;;
25946;SDS011;13745;51.470;9.894;2023-02-12T16:40:28;19.02;;;9.77;;
25946;SDS011;13745;51.470;9.894;2023-02-12T16:43:23;12.30;;;7.57;;
25946;SDS011;13745;51.470;9.894;2023-02-12T16:46:10;14.95;;;8.05;;
25946;SDS011;13745;51.470;9.894;2023-02-12T16:48:57;14.40;;;8.63;;
25946;SDS011;13745;51.470;9.894;2023-02-12T16:51:45;11.27;;;6.75;;
25946;SDS011;13745;51.470;9.894;2023-02-12T16:54:32;9.65;;;6.07;;
25946;SDS011;13745;51.470;9.894;2023-02-12T16:57:18;9.52;;;5.82;;
25946;SDS011;13745;51.470;9.894;2023-02-12T17:00:04;8.15;;;5.35;;
25946;SDS011;13745;51.470;9.894;2023-02-12T17:02:52;8.50;;;5.43;;
25946;SDS011;13745;51.470;9.894;2023-02-12T17:05:38;10.70;;;5.88;;
25946;SDS011;13745;51.470;9.894;2023-02-12T17:08:25;10.15;;;5.97;;
25946;SDS011;13745;51.470;9.894;2023-02-12T17:11:11;18.45;;;10.10;;
25946;SDS011;13745;51.470;9.894;2023-02-12T17:14:00;10.75;;;7.18;;